sensor_id;sensor_type;location;lat;lon;timestamp;P1;durP1;ratioP1;P2;durP2;ratioP2
57752;SDS011;43583;53.132;6.574;2022-11-20T00:02:21;32.30;;;17.23;;
57752;SDS011;43583;53.132;6.574;2022-11-20T00:04:47;29.50;;;17.35;;
57752;SDS011;43583;53.132;6.574;2022-11-20T00:07:12;30.98;;;16.25;;
57752;SDS011;43583;53.132;6.574;2022-11-20T00:09:38;27.70;;;15.45;;
57752;SDS011;43583;53.132;6.574;2022-11-20T00:12:03;25.40;;;14.48;;
57752;SDS011;43583;53.132;6.574;2022-11-20T00:14:29;24.40;;;12.52;;
57752;SDS011;43583;53.132;6.574;2022-11-20T00:16:54;23.95;;;12.20;;
57752;SDS011;43583;53.132;6.574;2022-11-20T00:19:20;25.90;;;12.98;;
57752;SDS011;43583;53.132;6.574;2022-11-20T00:21:45;26.33;;;13.35;;
57752;SDS011;43583;53.132;6.574;2022-11-20T00:24:11;24.92;;;12.90;;
57752;SDS011;43583;53.132;6.574;2022-11-20T00:26:37;23.73;;;12.77;;
57752;SDS011;43583;53.132;6.574;2022-11-20T00:29:02;21.05;;;10.73;;
57752;SDS011;43583;53.132;6.574;2022-11-20T00:31:28;21.67;;;10.73;;
57752;SDS011;43583;53.132;6.574;2022-11-20T00:33:55;16.98;;;9.95;;
57752;SDS011;43583;53.132;6.574;2022-11-20T00:36:21;21.17;;;10.25;;
57752;SDS011;43583;53.132;6.574;2022-11-20T00:38:52;21.05;;;11.10;;
57752;SDS011;43583;53.132;6.574;2022-11-20T00:41:19;18.40;;;11.40;;
57752;SDS011;43583;53.132;6.574;2022-11-20T00:43:44;20.23;;;10.85;;
57752;SDS011;43583;53.132;6.574;2022-11-20T00:46:12;15.02;;;9.00;;
57752;SDS011;43583;53.132;6.574;2022-11-20T00:48:39;20.60;;;9.40;;
57752;SDS011;43583;53.132;6.574;2022-11-20T00:51:05;20.10;;;10.07;;
57752;SDS011;43583;53.132;6.574;2022-11-20T00:53:31;20.60;;;11.50;;
57752;SDS011;43583;53.132;6.574;2022-11-20T00:56:01;19.88;;;10.52;;
57752;SDS011;43583;53.132;6.574;2022-11-20T00:58:29;20.75;;;10.68;;
57752;SDS011;43583;53.132;6.574;2022-11-20T01:01:00;17.35;;;9.93;;
57752;SDS011;43583;53.132;6.574;2022-11-20T01:03:31;22.33;;;10.60;;
57752;SDS011;43583;53.132;6.574;2022-11-20T01:06:01;21.73;;;12.27;;
57752;SDS011;43583;53.132;6.574;2022-11-20T01:08:31;21.13;;;9.82;;
57752;SDS011;43583;53.132;6.574;2022-11-20T01:10:58;22.00;;;11.48;;
57752;SDS011;43583;53.132;6.574;2022-11-20T01:13:29;18.50;;;10.18;;
57752;SDS011;43583;53.132;6.574;2022-11-20T01:16:09;17.67;;;10.73;;
57752;SDS011;43583;53.132;6.574;2022-11-20T01:18:41;22.92;;;10.77;;
57752;SDS011;43583;53.132;6.574;2022-11-20T01:21:19;20.88;;;10.80;;
57752;SDS011;43583;53.132;6.574;2022-11-20T01:23:46;19.88;;;10.93;;
57752;SDS011;43583;53.132;6.574;2022-11-20T01:26:15;19.17;;;10.98;;
57752;SDS011;43583;53.132;6.574;2022-11-20T01:28:43;18.65;;;9.43;;
57752;SDS011;43583;53.132;6.574;2022-11-20T01:31:16;20.15;;;11.30;;
57752;SDS011;43583;53.132;6.574;2022-11-20T01:33:42;20.48;;;10.65;;
57752;SDS011;43583;53.132;6.574;2022-11-20T01:36:09;19.13;;;10.85;;
57752;SDS011;43583;53.132;6.574;2022-11-20T01:38:36;18.98;;;9.25;;
57752;SDS011;43583;53.132;6.574;2022-11-20T01:41:02;21.05;;;9.88;;
57752;SDS011;43583;53.132;6.574;2022-11-20T01:43:28;20.90;;;10.43;;
57752;SDS011;43583;53.132;6.574;2022-11-20T01:46:02;20.10;;;10.38;;
57752;SDS011;43583;53.132;6.574;2022-11-20T01:48:52;18.67;;;9.38;;
57752;SDS011;43583;53.132;6.574;2022-11-20T01:53:53;18.58;;;9.82;;
57752;SDS011;43583;53.132;6.574;2022-11-20T01:56:22;17.83;;;8.70;;
57752;SDS011;43583;53.132;6.574;2022-11-20T01:58:50;14.52;;;8.85;;
57752;SDS011;43583;53.132;6.574;2022-11-20T02:01:20;14.60;;;9.32;;
57752;SDS011;43583;53.132;6.574;2022-11-20T02:03:46;15.90;;;7.60;;
57752;SDS011;43583;53.132;6.574;2022-11-20T02:06:23;13.07;;;7.53;;
57752;SDS011;43583;53.132;6.574;2022-11-20T02:08:51;18.80;;;9.65;;
57752;SDS011;43583;53.132;6.574;2022-11-20T02:11:17;20.65;;;9.23;;
57752;SDS011;43583;53.132;6.574;2022-11-20T02:13:43;15.77;;;9.00;;
57752;SDS011;43583;53.132;6.574;2022-11-20T02:16:28;17.30;;;7.85;;
57752;SDS011;43583;53.132;6.574;2022-11-20T02:19:32;16.05;;;8.52;;
57752;SDS011;43583;53.132;6.574;2022-11-20T02:22:02;16.40;;;9.15;;
57752;SDS011;43583;53.132;6.574;2022-11-20T02:24:29;16.67;;;8.95;;
57752;SDS011;43583;53.132;6.574;2022-11-20T02:29:27;16.25;;;9.00;;
57752;SDS011;43583;53.132;6.574;2022-11-20T02:32:00;15.65;;;8.50;;
57752;SDS011;43583;53.132;6.574;2022-11-20T02:34:26;17.88;;;8.98;;
57752;SDS011;43583;53.132;6.574;2022-11-20T02:36:53;15.82;;;9.18;;
57752;SDS011;43583;53.132;6.574;2022-11-20T02:39:20;16.88;;;8.82;;
57752;SDS011;43583;53.132;6.574;2022-11-20T02:41:49;16.25;;;8.00;;
57752;SDS011;43583;53.132;6.574;2022-11-20T02:44:16;15.95;;;8.38;;
57752;SDS011;43583;53.132;6.574;2022-11-20T02:46:42;15.15;;;7.93;;
57752;SDS011;43583;53.132;6.574;2022-11-20T02:49:08;18.58;;;9.57;;
57752;SDS011;43583;53.132;6.574;2022-11-20T02:51:33;16.02;;;8.55;;
57752;SDS011;43583;53.132;6.574;2022-11-20T02:53:59;17.05;;;8.27;;
57752;SDS011;43583;53.132;6.574;2022-11-20T02:56:24;16.52;;;8.05;;
57752;SDS011;43583;53.132;6.574;2022-11-20T02:58:50;14.90;;;8.13;;
57752;SDS011;43583;53.132;6.574;2022-11-20T03:01:16;14.30;;;8.50;;
57752;SDS011;43583;53.132;6.574;2022-11-20T03:03:41;16.40;;;8.18;;
57752;SDS011;43583;53.132;6.574;2022-11-20T03:06:07;14.52;;;8.40;;
57752;SDS011;43583;53.132;6.574;2022-11-20T03:08:33;17.42;;;8.70;;
57752;SDS011;43583;53.132;6.574;2022-11-20T03:11:03;16.33;;;8.68;;
57752;SDS011;43583;53.132;6.574;2022-11-20T03:13:30;13.82;;;7.13;;
57752;SDS011;43583;53.132;6.574;2022-11-20T03:15:55;13.30;;;7.45;;
57752;SDS011;43583;53.132;6.574;2022-11-20T03:18:21;15.38;;;8.75;;
57752;SDS011;43583;53.132;6.574;2022-11-20T03:20:46;16.80;;;8.13;;
57752;SDS011;43583;53.132;6.574;2022-11-20T03:23:12;17.73;;;8.07;;
57752;SDS011;43583;53.132;6.574;2022-11-20T03:25:37;13.32;;;7.63;;
57752;SDS011;43583;53.132;6.574;2022-11-20T03:28:03;16.33;;;8.90;;
57752;SDS011;43583;53.132;6.574;2022-11-20T03:30:28;14.95;;;8.75;;
57752;SDS011;43583;53.132;6.574;2022-11-20T03:32:54;19.02;;;8.25;;
57752;SDS011;43583;53.132;6.574;2022-11-20T03:35:19;19.60;;;8.65;;
57752;SDS011;43583;53.132;6.574;2022-11-20T03:37:45;18.85;;;7.50;;
57752;SDS011;43583;53.132;6.574;2022-11-20T03:40:11;14.25;;;7.78;;
57752;SDS011;43583;53.132;6.574;2022-11-20T03:42:37;15.55;;;7.90;;
57752;SDS011;43583;53.132;6.574;2022-11-20T03:45:12;16.30;;;8.63;;
57752;SDS011;43583;53.132;6.574;2022-11-20T03:47:39;16.08;;;8.00;;
57752;SDS011;43583;53.132;6.574;2022-11-20T03:50:05;15.65;;;8.50;;
57752;SDS011;43583;53.132;6.574;2022-11-20T03:52:30;16.02;;;8.50;;
57752;SDS011;43583;53.132;6.574;2022-11-20T03:54:56;14.60;;;7.45;;
57752;SDS011;43583;53.132;6.574;2022-11-20T03:57:21;17.58;;;8.15;;
57752;SDS011;43583;53.132;6.574;2022-11-20T03:59:47;13.90;;;6.85;;
57752;SDS011;43583;53.132;6.574;2022-11-20T04:02:12;15.27;;;7.85;;
57752;SDS011;43583;53.132;6.574;2022-11-20T04:04:38;14.00;;;7.10;;
57752;SDS011;43583;53.132;6.574;2022-11-20T04:07:04;15.18;;;7.65;;
57752;SDS011;43583;53.132;6.574;2022-11-20T04:09:29;14.15;;;8.57;;
57752;SDS011;43583;53.132;6.574;2022-11-20T04:11:55;12.35;;;6.43;;
57752;SDS011;43583;53.132;6.574;2022-11-20T04:14:20;12.57;;;7.35;;
57752;SDS011;43583;53.132;6.574;2022-11-20T04:16:46;14.98;;;7.97;;
57752;SDS011;43583;53.132;6.574;2022-11-20T04:19:13;14.55;;;7.85;;
57752;SDS011;43583;53.132;6.574;2022-11-20T04:21:39;14.90;;;8.00;;
57752;SDS011;43583;53.132;6.574;2022-11-20T04:24:05;15.63;;;8.18;;
57752;SDS011;43583;53.132;6.574;2022-11-20T04:26:32;12.57;;;7.07;;
57752;SDS011;43583;53.132;6.574;2022-11-20T04:28:57;14.40;;;8.02;;
57752;SDS011;43583;53.132;6.574;2022-11-20T04:31:24;13.23;;;6.68;;
57752;SDS011;43583;53.132;6.574;2022-11-20T04:33:51;14.85;;;7.20;;
57752;SDS011;43583;53.132;6.574;2022-11-20T04:36:24;15.70;;;7.38;;
57752;SDS011;43583;53.132;6.574;2022-11-20T04:38:52;17.60;;;7.07;;
57752;SDS011;43583;53.132;6.574;2022-11-20T04:41:20;13.35;;;6.78;;
57752;SDS011;43583;53.132;6.574;2022-11-20T04:43:47;10.38;;;6.45;;
57752;SDS011;43583;53.132;6.574;2022-11-20T04:46:14;14.05;;;6.53;;
57752;SDS011;43583;53.132;6.574;2022-11-20T04:48:40;12.77;;;6.75;;
57752;SDS011;43583;53.132;6.574;2022-11-20T04:51:06;12.65;;;6.63;;
57752;SDS011;43583;53.132;6.574;2022-11-20T04:53:31;14.30;;;8.02;;
57752;SDS011;43583;53.132;6.574;2022-11-20T04:56:01;11.98;;;6.82;;
57752;SDS011;43583;53.132;6.574;2022-11-20T04:58:28;12.35;;;7.18;;
57752;SDS011;43583;53.132;6.574;2022-11-20T05:00:59;13.40;;;6.72;;
57752;SDS011;43583;53.132;6.574;2022-11-20T05:03:27;13.35;;;6.90;;
57752;SDS011;43583;53.132;6.574;2022-11-20T05:05:52;13.30;;;6.80;;
57752;SDS011;43583;53.132;6.574;2022-11-20T05:08:18;13.07;;;6.95;;
57752;SDS011;43583;53.132;6.574;2022-11-20T05:10:43;13.85;;;7.35;;
57752;SDS011;43583;53.132;6.574;2022-11-20T05:13:09;13.90;;;6.53;;
57752;SDS011;43583;53.132;6.574;2022-11-20T05:15:34;11.73;;;5.88;;
57752;SDS011;43583;53.132;6.574;2022-11-20T05:18:00;11.48;;;6.53;;
57752;SDS011;43583;53.132;6.574;2022-11-20T05:20:25;11.25;;;6.38;;
57752;SDS011;43583;53.132;6.574;2022-11-20T05:22:51;12.05;;;7.00;;
57752;SDS011;43583;53.132;6.574;2022-11-20T05:25:16;14.32;;;6.72;;
57752;SDS011;43583;53.132;6.574;2022-11-20T05:27:42;13.63;;;7.30;;
57752;SDS011;43583;53.132;6.574;2022-11-20T05:30:08;14.15;;;7.65;;
57752;SDS011;43583;53.132;6.574;2022-11-20T05:32:34;12.75;;;6.82;;
57752;SDS011;43583;53.132;6.574;2022-11-20T05:34:59;10.98;;;6.13;;
57752;SDS011;43583;53.132;6.574;2022-11-20T05:37:25;13.55;;;6.30;;
57752;SDS011;43583;53.132;6.574;2022-11-20T05:39:50;12.98;;;6.63;;
57752;SDS011;43583;53.132;6.574;2022-11-20T05:42:16;12.07;;;6.75;;
57752;SDS011;43583;53.132;6.574;2022-11-20T05:44:57;13.60;;;6.50;;
57752;SDS011;43583;53.132;6.574;2022-11-20T05:47:24;11.63;;;6.07;;
57752;SDS011;43583;53.132;6.574;2022-11-20T05:49:50;10.38;;;5.63;;
57752;SDS011;43583;53.132;6.574;2022-11-20T05:52:15;11.18;;;5.60;;
57752;SDS011;43583;53.132;6.574;2022-11-20T05:54:41;12.02;;;6.22;;
57752;SDS011;43583;53.132;6.574;2022-11-20T05:57:06;11.52;;;5.82;;
57752;SDS011;43583;53.132;6.574;2022-11-20T05:59:32;15.68;;;6.82;;
57752;SDS011;43583;53.132;6.574;2022-11-20T06:01:57;10.98;;;5.55;;
57752;SDS011;43583;53.132;6.574;2022-11-20T06:04:23;11.25;;;5.63;;
57752;SDS011;43583;53.132;6.574;2022-11-20T06:06:49;10.93;;;6.10;;
57752;SDS011;43583;53.132;6.574;2022-11-20T06:09:14;12.63;;;6.53;;
57752;SDS011;43583;53.132;6.574;2022-11-20T06:11:40;10.90;;;5.90;;
57752;SDS011;43583;53.132;6.574;2022-11-20T06:14:05;11.50;;;5.50;;
57752;SDS011;43583;53.132;6.574;2022-11-20T06:16:31;10.75;;;6.47;;
57752;SDS011;43583;53.132;6.574;2022-11-20T06:18:57;9.70;;;5.68;;
57752;SDS011;43583;53.132;6.574;2022-11-20T06:21:22;10.90;;;6.38;;
57752;SDS011;43583;53.132;6.574;2022-11-20T06:23:48;12.18;;;6.57;;
57752;SDS011;43583;53.132;6.574;2022-11-20T06:26:16;10.38;;;5.50;;
57752;SDS011;43583;53.132;6.574;2022-11-20T06:28:43;11.73;;;6.43;;
57752;SDS011;43583;53.132;6.574;2022-11-20T06:31:10;10.10;;;5.57;;
57752;SDS011;43583;53.132;6.574;2022-11-20T06:33:36;10.55;;;5.47;;
57752;SDS011;43583;53.132;6.574;2022-11-20T06:36:02;11.43;;;6.65;;
57752;SDS011;43583;53.132;6.574;2022-11-20T06:38:28;11.00;;;5.72;;
57752;SDS011;43583;53.132;6.574;2022-11-20T06:40:54;9.63;;;5.57;;
57752;SDS011;43583;53.132;6.574;2022-11-20T06:43:21;11.23;;;6.20;;
57752;SDS011;43583;53.132;6.574;2022-11-20T06:45:53;12.00;;;6.30;;
57752;SDS011;43583;53.132;6.574;2022-11-20T06:48:20;9.50;;;4.95;;
57752;SDS011;43583;53.132;6.574;2022-11-20T06:50:45;11.13;;;6.03;;
57752;SDS011;43583;53.132;6.574;2022-11-20T06:53:11;10.68;;;5.40;;
57752;SDS011;43583;53.132;6.574;2022-11-20T06:55:37;10.95;;;4.90;;
57752;SDS011;43583;53.132;6.574;2022-11-20T06:58:07;10.82;;;5.63;;
57752;SDS011;43583;53.132;6.574;2022-11-20T07:00:32;9.77;;;5.40;;
57752;SDS011;43583;53.132;6.574;2022-11-20T07:03:02;10.68;;;5.30;;
57752;SDS011;43583;53.132;6.574;2022-11-20T07:05:28;9.43;;;4.50;;
57752;SDS011;43583;53.132;6.574;2022-11-20T07:07:55;8.98;;;4.55;;
57752;SDS011;43583;53.132;6.574;2022-11-20T07:10:21;8.95;;;5.00;;
57752;SDS011;43583;53.132;6.574;2022-11-20T07:12:50;12.30;;;5.72;;
57752;SDS011;43583;53.132;6.574;2022-11-20T07:15:19;9.40;;;5.07;;
57752;SDS011;43583;53.132;6.574;2022-11-20T07:17:46;10.15;;;4.78;;
57752;SDS011;43583;53.132;6.574;2022-11-20T07:20:12;10.75;;;5.57;;
57752;SDS011;43583;53.132;6.574;2022-11-20T07:22:38;9.52;;;4.95;;
57752;SDS011;43583;53.132;6.574;2022-11-20T07:25:04;8.90;;;5.60;;
57752;SDS011;43583;53.132;6.574;2022-11-20T07:27:30;8.32;;;4.95;;
57752;SDS011;43583;53.132;6.574;2022-11-20T07:29:56;10.82;;;5.50;;
57752;SDS011;43583;53.132;6.574;2022-11-20T07:32:22;10.05;;;5.05;;
57752;SDS011;43583;53.132;6.574;2022-11-20T07:34:47;9.15;;;5.43;;
57752;SDS011;43583;53.132;6.574;2022-11-20T07:37:13;7.72;;;4.47;;
57752;SDS011;43583;53.132;6.574;2022-11-20T07:39:39;11.02;;;5.68;;
57752;SDS011;43583;53.132;6.574;2022-11-20T07:42:08;10.48;;;6.20;;
57752;SDS011;43583;53.132;6.574;2022-11-20T07:44:35;10.93;;;5.50;;
57752;SDS011;43583;53.132;6.574;2022-11-20T07:47:01;9.27;;;5.70;;
57752;SDS011;43583;53.132;6.574;2022-11-20T07:49:27;8.88;;;5.30;;
57752;SDS011;43583;53.132;6.574;2022-11-20T07:51:53;10.82;;;5.65;;
57752;SDS011;43583;53.132;6.574;2022-11-20T07:54:19;11.10;;;6.50;;
57752;SDS011;43583;53.132;6.574;2022-11-20T07:56:45;14.32;;;6.70;;
57752;SDS011;43583;53.132;6.574;2022-11-20T07:59:11;11.55;;;5.50;;
57752;SDS011;43583;53.132;6.574;2022-11-20T08:01:38;12.25;;;6.45;;
57752;SDS011;43583;53.132;6.574;2022-11-20T08:04:04;9.02;;;5.00;;
57752;SDS011;43583;53.132;6.574;2022-11-20T08:06:29;10.63;;;5.40;;
57752;SDS011;43583;53.132;6.574;2022-11-20T08:08:55;9.90;;;5.60;;
57752;SDS011;43583;53.132;6.574;2022-11-20T08:11:20;10.32;;;5.22;;
57752;SDS011;43583;53.132;6.574;2022-11-20T08:14:04;12.18;;;6.35;;
57752;SDS011;43583;53.132;6.574;2022-11-20T08:16:46;10.68;;;5.82;;
57752;SDS011;43583;53.132;6.574;2022-11-20T08:19:17;9.98;;;6.38;;
57752;SDS011;43583;53.132;6.574;2022-11-20T08:21:43;9.23;;;5.68;;
57752;SDS011;43583;53.132;6.574;2022-11-20T08:24:09;11.00;;;5.95;;
57752;SDS011;43583;53.132;6.574;2022-11-20T08:26:36;8.95;;;5.35;;
57752;SDS011;43583;53.132;6.574;2022-11-20T08:29:03;9.77;;;5.85;;
57752;SDS011;43583;53.132;6.574;2022-11-20T08:31:29;9.75;;;5.45;;
57752;SDS011;43583;53.132;6.574;2022-11-20T08:33:55;10.02;;;5.13;;
57752;SDS011;43583;53.132;6.574;2022-11-20T08:36:22;10.00;;;5.22;;
57752;SDS011;43583;53.132;6.574;2022-11-20T08:38:52;9.05;;;4.85;;
57752;SDS011;43583;53.132;6.574;2022-11-20T08:41:19;8.65;;;5.50;;
57752;SDS011;43583;53.132;6.574;2022-11-20T08:43:48;10.00;;;5.47;;
57752;SDS011;43583;53.132;6.574;2022-11-20T08:46:24;10.40;;;5.88;;
57752;SDS011;43583;53.132;6.574;2022-11-20T08:48:52;8.65;;;5.55;;
57752;SDS011;43583;53.132;6.574;2022-11-20T08:51:18;11.70;;;5.25;;
57752;SDS011;43583;53.132;6.574;2022-11-20T08:53:44;10.15;;;5.38;;
57752;SDS011;43583;53.132;6.574;2022-11-20T08:56:10;8.85;;;5.28;;
57752;SDS011;43583;53.132;6.574;2022-11-20T08:58:36;11.85;;;5.55;;
57752;SDS011;43583;53.132;6.574;2022-11-20T09:01:02;6.78;;;4.50;;
57752;SDS011;43583;53.132;6.574;2022-11-20T09:03:28;9.63;;;6.05;;
57752;SDS011;43583;53.132;6.574;2022-11-20T09:06:00;8.82;;;5.28;;
57752;SDS011;43583;53.132;6.574;2022-11-20T09:08:28;11.25;;;5.53;;
57752;SDS011;43583;53.132;6.574;2022-11-20T09:10:54;11.18;;;5.60;;
57752;SDS011;43583;53.132;6.574;2022-11-20T09:13:21;7.00;;;4.30;;
57752;SDS011;43583;53.132;6.574;2022-11-20T09:15:52;8.63;;;4.60;;
57752;SDS011;43583;53.132;6.574;2022-11-20T09:18:19;8.07;;;4.75;;
57752;SDS011;43583;53.132;6.574;2022-11-20T09:20:45;8.27;;;4.57;;
57752;SDS011;43583;53.132;6.574;2022-11-20T09:23:10;9.38;;;5.40;;
57752;SDS011;43583;53.132;6.574;2022-11-20T09:25:36;8.05;;;4.82;;
57752;SDS011;43583;53.132;6.574;2022-11-20T09:28:01;7.32;;;4.25;;
57752;SDS011;43583;53.132;6.574;2022-11-20T09:30:27;7.80;;;4.13;;
57752;SDS011;43583;53.132;6.574;2022-11-20T09:32:53;8.35;;;4.68;;
57752;SDS011;43583;53.132;6.574;2022-11-20T09:35:18;8.82;;;4.18;;
57752;SDS011;43583;53.132;6.574;2022-11-20T09:37:44;9.57;;;4.93;;
57752;SDS011;43583;53.132;6.574;2022-11-20T09:40:17;8.32;;;4.25;;
57752;SDS011;43583;53.132;6.574;2022-11-20T09:46:02;7.30;;;4.00;;
57752;SDS011;43583;53.132;6.574;2022-11-20T09:48:54;8.48;;;4.30;;
57752;SDS011;43583;53.132;6.574;2022-11-20T09:51:43;9.00;;;4.95;;
57752;SDS011;43583;53.132;6.574;2022-11-20T09:54:22;9.38;;;4.40;;
57752;SDS011;43583;53.132;6.574;2022-11-20T09:57:01;7.63;;;4.53;;
57752;SDS011;43583;53.132;6.574;2022-11-20T09:59:38;9.75;;;5.22;;
57752;SDS011;43583;53.132;6.574;2022-11-20T10:02:30;6.68;;;4.25;;
57752;SDS011;43583;53.132;6.574;2022-11-20T10:05:09;8.93;;;4.80;;
57752;SDS011;43583;53.132;6.574;2022-11-20T10:07:44;7.95;;;4.50;;
57752;SDS011;43583;53.132;6.574;2022-11-20T10:10:16;7.10;;;4.22;;
57752;SDS011;43583;53.132;6.574;2022-11-20T10:12:51;12.75;;;5.18;;
57752;SDS011;43583;53.132;6.574;2022-11-20T10:15:46;7.93;;;4.30;;
57752;SDS011;43583;53.132;6.574;2022-11-20T10:29:47;6.07;;;4.43;;
57752;SDS011;43583;53.132;6.574;2022-11-20T10:32:42;8.70;;;4.60;;
57752;SDS011;43583;53.132;6.574;2022-11-20T10:37:51;8.13;;;4.70;;
57752;SDS011;43583;53.132;6.574;2022-11-20T10:40:40;6.80;;;4.55;;
57752;SDS011;43583;53.132;6.574;2022-11-20T10:43:09;10.68;;;4.90;;
57752;SDS011;43583;53.132;6.574;2022-11-20T10:45:56;6.78;;;3.70;;
57752;SDS011;43583;53.132;6.574;2022-11-20T10:48:27;6.72;;;3.08;;
57752;SDS011;43583;53.132;6.574;2022-11-20T11:02:22;6.18;;;3.83;;
57752;SDS011;43583;53.132;6.574;2022-11-20T11:04:50;7.40;;;4.07;;
57752;SDS011;43583;53.132;6.574;2022-11-20T11:09:47;7.85;;;4.70;;
57752;SDS011;43583;53.132;6.574;2022-11-20T11:12:15;7.47;;;4.38;;
57752;SDS011;43583;53.132;6.574;2022-11-20T11:14:42;6.88;;;3.72;;
57752;SDS011;43583;53.132;6.574;2022-11-20T11:20:30;6.57;;;4.63;;
57752;SDS011;43583;53.132;6.574;2022-11-20T11:22:57;8.52;;;4.18;;
57752;SDS011;43583;53.132;6.574;2022-11-20T11:25:34;6.15;;;4.35;;
57752;SDS011;43583;53.132;6.574;2022-11-20T11:28:18;6.78;;;4.20;;
57752;SDS011;43583;53.132;6.574;2022-11-20T11:30:49;6.88;;;4.03;;
57752;SDS011;43583;53.132;6.574;2022-11-20T11:33:19;7.15;;;3.75;;
57752;SDS011;43583;53.132;6.574;2022-11-20T11:35:47;6.72;;;3.78;;
57752;SDS011;43583;53.132;6.574;2022-11-20T11:38:16;5.80;;;3.55;;
57752;SDS011;43583;53.132;6.574;2022-11-20T11:40:44;5.57;;;3.08;;
57752;SDS011;43583;53.132;6.574;2022-11-20T11:43:28;5.65;;;3.47;;
57752;SDS011;43583;53.132;6.574;2022-11-20T11:48:59;5.93;;;3.17;;
57752;SDS011;43583;53.132;6.574;2022-11-20T11:51:36;5.75;;;2.95;;
57752;SDS011;43583;53.132;6.574;2022-11-20T11:54:26;4.97;;;3.50;;
57752;SDS011;43583;53.132;6.574;2022-11-20T12:13:33;6.07;;;3.53;;
57752;SDS011;43583;53.132;6.574;2022-11-20T12:16:13;7.15;;;2.78;;
57752;SDS011;43583;53.132;6.574;2022-11-20T12:18:40;6.03;;;3.55;;
57752;SDS011;43583;53.132;6.574;2022-11-20T12:26:57;4.72;;;2.15;;
57752;SDS011;43583;53.132;6.574;2022-11-20T12:29:54;3.67;;;1.60;;
57752;SDS011;43583;53.132;6.574;2022-11-20T12:32:40;2.47;;;1.33;;
57752;SDS011;43583;53.132;6.574;2022-11-20T12:35:26;6.97;;;1.85;;
57752;SDS011;43583;53.132;6.574;2022-11-20T12:38:11;3.72;;;2.08;;
57752;SDS011;43583;53.132;6.574;2022-11-20T12:40:54;4.13;;;1.60;;
57752;SDS011;43583;53.132;6.574;2022-11-20T12:43:33;3.63;;;2.20;;
57752;SDS011;43583;53.132;6.574;2022-11-20T12:49:05;4.13;;;2.17;;
57752;SDS011;43583;53.132;6.574;2022-11-20T12:51:43;3.92;;;1.85;;
57752;SDS011;43583;53.132;6.574;2022-11-20T12:57:43;4.82;;;2.40;;
57752;SDS011;43583;53.132;6.574;2022-11-20T13:00:22;3.80;;;1.80;;
57752;SDS011;43583;53.132;6.574;2022-11-20T13:03:06;5.18;;;2.13;;
57752;SDS011;43583;53.132;6.574;2022-11-20T13:08:14;3.22;;;2.42;;
57752;SDS011;43583;53.132;6.574;2022-11-20T13:16:17;4.25;;;2.15;;
57752;SDS011;43583;53.132;6.574;2022-11-20T13:18:48;9.02;;;3.22;;
57752;SDS011;43583;53.132;6.574;2022-11-20T13:21:15;3.70;;;2.10;;
57752;SDS011;43583;53.132;6.574;2022-11-20T13:23:45;6.07;;;2.47;;
57752;SDS011;43583;53.132;6.574;2022-11-20T13:26:15;4.18;;;1.98;;
57752;SDS011;43583;53.132;6.574;2022-11-20T13:28:47;3.58;;;2.22;;
57752;SDS011;43583;53.132;6.574;2022-11-20T13:31:32;4.80;;;2.78;;
57752;SDS011;43583;53.132;6.574;2022-11-20T13:33:59;4.80;;;2.77;;
57752;SDS011;43583;53.132;6.574;2022-11-20T13:36:29;6.65;;;2.40;;
57752;SDS011;43583;53.132;6.574;2022-11-20T13:38:56;6.00;;;3.17;;
57752;SDS011;43583;53.132;6.574;2022-11-20T13:41:26;5.55;;;3.47;;
57752;SDS011;43583;53.132;6.574;2022-11-20T13:44:10;5.60;;;2.80;;
57752;SDS011;43583;53.132;6.574;2022-11-20T13:46:44;5.97;;;2.95;;
57752;SDS011;43583;53.132;6.574;2022-11-20T13:49:31;5.05;;;3.00;;
57752;SDS011;43583;53.132;6.574;2022-11-20T13:52:05;4.80;;;3.00;;
57752;SDS011;43583;53.132;6.574;2022-11-20T13:54:52;6.93;;;2.80;;
57752;SDS011;43583;53.132;6.574;2022-11-20T14:00:24;5.38;;;2.50;;
57752;SDS011;43583;53.132;6.574;2022-11-20T14:02:59;4.50;;;2.38;;
57752;SDS011;43583;53.132;6.574;2022-11-20T14:05:26;4.80;;;2.63;;
57752;SDS011;43583;53.132;6.574;2022-11-20T14:07:52;4.32;;;2.50;;
57752;SDS011;43583;53.132;6.574;2022-11-20T14:10:23;6.45;;;3.80;;
57752;SDS011;43583;53.132;6.574;2022-11-20T14:12:50;4.78;;;2.78;;
57752;SDS011;43583;53.132;6.574;2022-11-20T14:15:29;5.32;;;3.17;;
57752;SDS011;43583;53.132;6.574;2022-11-20T14:17:57;5.78;;;3.28;;
57752;SDS011;43583;53.132;6.574;2022-11-20T14:20:25;5.50;;;2.45;;
57752;SDS011;43583;53.132;6.574;2022-11-20T14:22:54;5.40;;;2.97;;
57752;SDS011;43583;53.132;6.574;2022-11-20T14:25:25;4.35;;;2.70;;
57752;SDS011;43583;53.132;6.574;2022-11-20T14:30:24;4.90;;;2.33;;
57752;SDS011;43583;53.132;6.574;2022-11-20T14:32:51;4.22;;;2.50;;
57752;SDS011;43583;53.132;6.574;2022-11-20T14:37:50;3.78;;;2.75;;
57752;SDS011;43583;53.132;6.574;2022-11-20T14:42:53;7.90;;;3.83;;
57752;SDS011;43583;53.132;6.574;2022-11-20T14:45:19;4.10;;;2.10;;
57752;SDS011;43583;53.132;6.574;2022-11-20T14:47:46;4.80;;;2.58;;
57752;SDS011;43583;53.132;6.574;2022-11-20T14:50:14;5.80;;;3.33;;
57752;SDS011;43583;53.132;6.574;2022-11-20T14:52:52;4.57;;;2.72;;
57752;SDS011;43583;53.132;6.574;2022-11-20T14:55:53;6.70;;;3.40;;
57752;SDS011;43583;53.132;6.574;2022-11-20T14:58:22;4.65;;;2.88;;
57752;SDS011;43583;53.132;6.574;2022-11-20T15:01:00;6.57;;;3.00;;
57752;SDS011;43583;53.132;6.574;2022-11-20T15:03:34;7.07;;;4.18;;
57752;SDS011;43583;53.132;6.574;2022-11-20T15:06:01;4.35;;;2.80;;
57752;SDS011;43583;53.132;6.574;2022-11-20T15:08:27;7.82;;;4.03;;
57752;SDS011;43583;53.132;6.574;2022-11-20T15:10:53;7.43;;;3.70;;
57752;SDS011;43583;53.132;6.574;2022-11-20T15:13:29;5.25;;;3.25;;
57752;SDS011;43583;53.132;6.574;2022-11-20T15:15:58;5.68;;;3.45;;
57752;SDS011;43583;53.132;6.574;2022-11-20T15:18:36;6.60;;;3.67;;
57752;SDS011;43583;53.132;6.574;2022-11-20T15:21:06;6.95;;;3.50;;
57752;SDS011;43583;53.132;6.574;2022-11-20T15:23:36;6.72;;;4.05;;
57752;SDS011;43583;53.132;6.574;2022-11-20T15:26:01;8.57;;;4.10;;
57752;SDS011;43583;53.132;6.574;2022-11-20T15:28:36;10.93;;;6.95;;
57752;SDS011;43583;53.132;6.574;2022-11-20T15:31:09;8.02;;;5.22;;
57752;SDS011;43583;53.132;6.574;2022-11-20T15:33:37;8.07;;;5.00;;
57752;SDS011;43583;53.132;6.574;2022-11-20T15:36:02;8.05;;;4.30;;
57752;SDS011;43583;53.132;6.574;2022-11-20T15:38:28;9.80;;;4.47;;
57752;SDS011;43583;53.132;6.574;2022-11-20T15:40:54;8.07;;;3.88;;
57752;SDS011;43583;53.132;6.574;2022-11-20T15:43:19;9.10;;;4.80;;
57752;SDS011;43583;53.132;6.574;2022-11-20T15:45:45;9.40;;;5.63;;
57752;SDS011;43583;53.132;6.574;2022-11-20T15:48:19;7.78;;;4.63;;
57752;SDS011;43583;53.132;6.574;2022-11-20T15:50:52;24.00;;;12.82;;
57752;SDS011;43583;53.132;6.574;2022-11-20T15:53:27;10.15;;;5.88;;
57752;SDS011;43583;53.132;6.574;2022-11-20T15:55:53;9.23;;;6.25;;
57752;SDS011;43583;53.132;6.574;2022-11-20T15:58:18;11.30;;;6.15;;
57752;SDS011;43583;53.132;6.574;2022-11-20T16:00:44;9.45;;;4.80;;
57752;SDS011;43583;53.132;6.574;2022-11-20T16:03:10;7.15;;;4.40;;
57752;SDS011;43583;53.132;6.574;2022-11-20T16:05:36;9.05;;;4.68;;
57752;SDS011;43583;53.132;6.574;2022-11-20T16:08:02;7.60;;;4.40;;
57752;SDS011;43583;53.132;6.574;2022-11-20T16:10:28;9.48;;;4.88;;
57752;SDS011;43583;53.132;6.574;2022-11-20T16:12:53;7.60;;;4.80;;
57752;SDS011;43583;53.132;6.574;2022-11-20T16:15:37;9.45;;;5.20;;
57752;SDS011;43583;53.132;6.574;2022-11-20T16:18:14;11.32;;;4.43;;
57752;SDS011;43583;53.132;6.574;2022-11-20T16:20:41;9.23;;;5.18;;
57752;SDS011;43583;53.132;6.574;2022-11-20T16:23:07;10.38;;;6.65;;